Time;durP1;ratioP1;P1;durP2;ratioP2;P2;SDS_P1;SDS_P2;PMS_P1;PMS_P2;Temp;Humidity;BMP_temperature;BMP_pressure;BME280_temperature;BME280_humidity;BME280_pressure;Samples;Min_cycle;Max_cycle;Signal;HPM_P1;HPM_P2
2021/09/05 00:01:21;;;;;;;20.35;16.10;;;;;;;12.70;83.10;96944.50;1684622;84;21495;-82
2021/09/05 00:03:47;;;;;;;17.95;15.48;;;;;;;12.71;83.17;96940.91;1689420;84;21418;-83
2021/09/05 00:06:13;;;;;;;20.02;16.77;;;;;;;12.72;83.01;96947.23;1679438;84;21019;-83
2021/09/05 00:08:38;;;;;;;18.45;15.78;;;;;;;12.71;82.92;96941.71;1696612;84;21007;-82
2021/09/05 00:11:04;;;;;;;19.27;15.32;;;;;;;12.67;82.82;96939.63;1684868;84;21413;-83
2021/09/05 00:13:30;;;;;;;18.50;15.50;;;;;;;12.65;82.90;96941.61;1677238;84;21097;-83
2021/09/05 00:15:56;;;;;;;16.77;13.72;;;;;;;12.63;82.94;96945.20;1694343;84;21067;-83
2021/09/05 00:18:21;;;;;;;17.07;14.13;;;;;;;12.65;83.18;96943.72;1683973;84;21039;-82
2021/09/05 00:20:47;;;;;;;19.48;15.72;;;;;;;12.67;82.99;96948.75;1694963;84;21028;-83
2021/09/05 00:23:14;;;;;;;19.52;15.48;;;;;;;12.65;82.95;96948.12;1695038;84;21390;-83
2021/09/05 00:25:40;;;;;;;18.77;15.70;;;;;;;12.62;83.07;96950.11;1682583;84;21048;-83
2021/09/05 00:28:06;;;;;;;17.60;14.80;;;;;;;12.59;83.27;96957.48;1681594;84;21035;-83
2021/09/05 00:30:32;;;;;;;19.42;14.60;;;;;;;12.58;83.31;96954.07;1686757;84;21453;-83
2021/09/05 00:32:57;;;;;;;17.23;14.23;;;;;;;12.57;83.28;96956.86;1676980;84;21027;-82
2021/09/05 00:35:23;;;;;;;19.25;15.38;;;;;;;12.52;82.87;96958.68;1676846;84;21070;-83
2021/09/05 00:37:49;;;;;;;18.05;15.68;;;;;;;12.51;83.11;96958.38;1697488;84;21059;-83
2021/09/05 00:40:15;;;;;;;18.67;15.60;;;;;;;12.51;83.30;96955.77;1674343;84;21054;-83
2021/09/05 00:42:41;;;;;;;16.25;14.53;;;;;;;12.52;83.38;96954.77;1681143;84;21386;-83
2021/09/05 00:45:08;;;;;;;17.80;15.48;;;;;;;12.50;83.25;96950.23;1688456;84;21092;-82
2021/09/05 00:47:34;;;;;;;20.32;15.58;;;;;;;12.48;83.32;96947.50;1698205;84;21050;-83
2021/09/05 00:50:00;;;;;;;18.20;13.95;;;;;;;12.47;83.07;96951.91;1688640;84;21446;-83
2021/09/05 00:52:26;;;;;;;17.32;14.85;;;;;;;12.44;82.97;96953.57;1687515;84;21039;-83
2021/09/05 00:54:51;;;;;;;16.57;14.38;;;;;;;12.43;82.94;96950.66;1694807;84;21047;-82
2021/09/05 00:57:18;;;;;;;17.42;14.65;;;;;;;12.40;82.68;96956.72;1657261;84;21001;-83
2021/09/05 00:59:47;;;;;;;17.92;15.05;;;;;;;12.33;82.97;96957.42;1691975;84;21035;-83
2021/09/05 01:02:11;;;;;;;19.30;15.98;;;;;;;12.31;83.26;96959.39;1683096;84;21489;-83
2021/09/05 01:04:37;;;;;;;18.75;15.30;;;;;;;12.30;83.26;96957.78;1678439;84;21127;-83
2021/09/05 01:07:03;;;;;;;21.37;16.27;;;;;;;12.30;83.20;96959.58;1686576;84;21013;-83
2021/09/05 01:09:29;;;;;;;17.60;15.00;;;;;;;12.28;83.22;96965.46;1678298;84;21422;-83
2021/09/05 01:11:56;;;;;;;18.48;15.13;;;;;;;12.27;83.20;96967.75;1691978;83;21126;-82
2021/09/05 01:14:22;;;;;;;17.82;15.30;;;;;;;12.25;83.40;96964.03;1690437;83;21532;-83
2021/09/05 01:16:48;;;;;;;17.85;15.05;;;;;;;12.22;83.46;96957.06;1716386;83;21119;-83
2021/09/05 01:19:18;;;;;;;17.77;15.88;;;;;;;12.20;83.58;96962.92;1701772;83;21448;-83
2021/09/05 01:21:47;;;;;;;20.75;15.53;;;;;;;12.16;83.78;96965.08;1708682;83;21434;-83
2021/09/05 01:24:13;;;;;;;20.37;14.90;;;;;;;12.15;84.08;96970.47;1685280;83;21023;-83
2021/09/05 01:26:42;;;;;;;19.05;14.60;;;;;;;12.12;84.19;96970.33;1704907;83;21020;-83
2021/09/05 01:29:08;;;;;;;17.48;15.18;;;;;;;12.15;84.15;96974.38;1699722;83;21052;-83
2021/09/05 01:31:47;;;;;;;20.70;17.82;;;;;;;12.19;84.17;96980.34;1709633;83;21363;-83
2021/09/05 01:34:15;;;;;;;21.02;16.93;;;;;;;12.19;84.01;96984.26;1689773;83;21409;-83
2021/09/05 01:36:42;;;;;;;19.20;16.48;;;;;;;12.17;84.16;96989.33;1661594;84;21059;-83
2021/09/05 01:39:09;;;;;;;20.35;14.93;;;;;;;12.16;84.38;96988.52;1674904;84;21026;-83
2021/09/05 01:41:35;;;;;;;19.50;14.45;;;;;;;12.17;84.22;96988.84;1688312;84;21010;-83
2021/09/05 01:44:06;;;;;;;18.98;14.83;;;;;;;12.17;84.30;96986.73;1687567;84;21497;-83
2021/09/05 01:46:32;;;;;;;17.42;14.80;;;;;;;12.18;84.43;96991.76;1685604;84;20991;-83
2021/09/05 01:48:58;;;;;;;19.55;15.00;;;;;;;12.21;84.37;96982.80;1687529;84;21051;-83
2021/09/05 01:51:23;;;;;;;19.80;15.68;;;;;;;12.20;84.21;96990.28;1691672;84;21007;-83
2021/09/05 01:53:49;;;;;;;19.90;15.43;;;;;;;12.17;84.19;96991.94;1653963;85;22270;-83
2021/09/05 01:56:15;;;;;;;17.35;14.50;;;;;;;12.12;84.01;96995.58;1699093;83;20976;-83
2021/09/05 01:58:41;;;;;;;17.67;14.65;;;;;;;12.09;84.17;96991.53;1702097;83;21071;-83
2021/09/05 02:01:07;;;;;;;16.87;13.80;;;;;;;12.09;84.16;96990.72;1698471;83;21047;-83
2021/09/05 02:03:32;;;;;;;17.40;14.53;;;;;;;12.09;84.03;96995.44;1675712;83;21021;-83
2021/09/05 02:05:58;;;;;;;19.65;15.65;;;;;;;12.09;84.09;96989.42;1696405;83;21458;-83
2021/09/05 02:08:24;;;;;;;21.33;15.70;;;;;;;12.09;83.97;96992.83;1688183;84;21093;-83
2021/09/05 02:10:50;;;;;;;19.92;16.25;;;;;;;12.08;84.26;96989.91;1690462;83;20994;-83
2021/09/05 02:13:15;;;;;;;20.52;15.85;;;;;;;12.08;84.32;96999.03;1694881;83;21083;-83
2021/09/05 02:15:41;;;;;;;17.57;14.68;;;;;;;12.07;84.18;96996.11;1696692;83;21038;-82
2021/09/05 02:18:07;;;;;;;16.80;14.03;;;;;;;12.07;84.22;97000.02;1715415;82;21073;-83
2021/09/05 02:20:33;;;;;;;19.98;15.30;;;;;;;12.07;84.22;97004.42;1713020;83;21023;-82
2021/09/05 02:22:59;;;;;;;19.27;15.65;;;;;;;12.08;84.33;96999.03;1693621;83;21043;-83
2021/09/05 02:25:25;;;;;;;18.10;15.13;;;;;;;12.07;84.18;97007.02;1688056;83;21382;-83
2021/09/05 02:27:50;;;;;;;18.17;15.50;;;;;;;12.06;84.36;97005.41;1710769;83;21008;-83
2021/09/05 02:30:16;;;;;;;18.20;14.45;;;;;;;12.06;84.46;97010.12;1711225;83;21052;-82
2021/09/05 02:32:42;;;;;;;17.90;13.72;;;;;;;12.07;84.36;97016.14;1718288;83;21337;-83
2021/09/05 02:35:08;;;;;;;17.02;15.20;;;;;;;12.05;84.08;97015.02;1665125;84;21028;-83
2021/09/05 02:37:37;;;;;;;16.82;14.80;;;;;;;12.03;83.83;97011.75;1683971;84;21384;-83
2021/09/05 02:40:04;;;;;;;18.85;14.83;;;;;;;12.01;83.70;97008.02;1684636;84;21012;-82
2021/09/05 02:42:33;;;;;;;17.37;14.73;;;;;;;11.96;83.73;97010.34;1673939;84;21057;-83
2021/09/05 02:45:00;;;;;;;20.55;16.73;;;;;;;11.91;83.72;97004.86;1689768;83;21102;-83
2021/09/05 02:47:25;;;;;;;19.60;15.08;;;;;;;11.89;83.98;97010.74;1663438;84;21049;-82
2021/09/05 02:49:51;;;;;;;18.75;15.18;;;;;;;11.90;83.84;97008.95;1664049;84;21007;-82
2021/09/05 02:52:17;;;;;;;21.55;15.70;;;;;;;11.90;84.03;97014.96;1661662;84;21023;-83
2021/09/05 02:54:43;;;;;;;19.17;15.05;;;;;;;11.93;84.14;97014.61;1670405;84;21048;-82
2021/09/05 02:57:08;;;;;;;18.17;15.70;;;;;;;11.94;83.96;97012.32;1678774;84;21020;-83
2021/09/05 02:59:34;;;;;;;17.57;15.45;;;;;;;11.94;84.20;97021.44;1680559;84;21440;-83
2021/09/05 03:02:00;;;;;;;20.15;16.15;;;;;;;11.92;84.31;97018.20;1680256;84;21099;-83
2021/09/05 03:04:26;;;;;;;19.80;16.45;;;;;;;11.89;84.13;97025.56;1661745;84;21075;-82
2021/09/05 03:06:52;;;;;;;19.77;14.83;;;;;;;11.87;84.08;97022.29;1678052;84;21570;-82
2021/09/05 03:09:18;;;;;;;20.30;16.30;;;;;;;11.85;83.98;97022.47;1681077;84;21087;-83
2021/09/05 03:11:43;;;;;;;21.20;15.63;;;;;;;11.86;84.01;97023.27;1699371;83;21013;-83
2021/09/05 03:14:09;;;;;;;19.17;15.78;;;;;;;11.87;84.16;97029.61;1696207;83;21473;-82
2021/09/05 03:16:36;;;;;;;20.57;15.85;;;;;;;11.86;84.26;97030.59;1707478;83;21021;-82
2021/09/05 03:19:01;;;;;;;19.77;15.10;;;;;;;11.84;84.13;97035.17;1694795;83;21423;-82
2021/09/05 03:21:27;;;;;;;16.45;13.50;;;;;;;11.81;83.99;97035.52;1707255;83;21311;-83
2021/09/05 03:23:53;;;;;;;18.50;13.13;;;;;;;11.78;83.86;97035.84;1714371;83;21425;-82
2021/09/05 03:26:18;;;;;;;19.37;15.63;;;;;;;11.78;83.86;97032.42;1722024;83;21176;-83
2021/09/05 03:28:44;;;;;;;21.82;16.77;;;;;;;11.77;84.02;97027.72;1666264;84;21020;-83
2021/09/05 03:31:10;;;;;;;19.37;16.15;;;;;;;11.78;84.31;97028.03;1671950;84;20999;-83
2021/09/05 03:33:36;;;;;;;20.52;15.50;;;;;;;11.80;84.57;97037.00;1714049;83;21359;-83
2021/09/05 03:36:02;;;;;;;19.25;16.50;;;;;;;11.78;84.58;97033.73;1676524;84;21043;-83
2021/09/05 03:38:27;;;;;;;18.17;14.83;;;;;;;11.79;84.59;97037.49;1686966;84;21120;-83
2021/09/05 03:40:53;;;;;;;18.30;14.75;;;;;;;11.79;84.55;97039.28;1685075;84;21133;-82
2021/09/05 03:43:19;;;;;;;19.07;14.98;;;;;;;11.81;84.79;97048.54;1692180;84;21130;-82
2021/09/05 03:45:44;;;;;;;17.25;15.45;;;;;;;11.87;84.70;97046.53;1689740;84;20999;-82
2021/09/05 03:48:10;;;;;;;17.15;15.20;;;;;;;11.87;84.53;97045.23;1680021;84;21020;-82
2021/09/05 03:50:36;;;;;;;18.32;15.13;;;;;;;11.84;84.31;97036.96;1687136;82;21022;-82
2021/09/05 03:53:02;;;;;;;18.92;15.60;;;;;;;11.80;84.29;97033.91;1701300;83;21453;-82
2021/09/05 03:55:27;;;;;;;18.45;14.10;;;;;;;11.80;84.40;97035.20;1699680;83;21363;-82
2021/09/05 03:57:53;;;;;;;19.52;15.78;;;;;;;11.80;84.16;97039.11;1702392;83;20984;-82
2021/09/05 04:00:19;;;;;;;19.92;15.58;;;;;;;11.81;84.24;97038.62;1716761;82;20980;-82
2021/09/05 04:02:45;;;;;;;19.67;16.35;;;;;;;11.83;84.34;97039.25;1674998;84;21052;-82
2021/09/05 04:05:11;;;;;;;18.37;14.93;;;;;;;11.82;84.12;97037.63;1663801;85;21015;-82
2021/09/05 04:07:43;;;;;;;20.35;15.93;;;;;;;11.73;84.13;97040.77;1677834;84;21102;-82
2021/09/05 04:10:08;;;;;;;20.95;15.98;;;;;;;11.69;84.28;97042.07;1700038;84;21020;-82
2021/09/05 04:12:40;;;;;;;18.70;14.28;;;;;;;11.69;84.39;97049.39;1687894;84;21017;-82
2021/09/05 04:15:07;;;;;;;17.45;14.90;;;;;;;11.71;84.55;97047.91;1699763;84;21065;-82
2021/09/05 04:17:33;;;;;;;18.05;14.90;;;;;;;11.73;84.25;97042.06;1688058;83;21442;-82
2021/09/05 04:19:59;;;;;;;20.90;15.70;;;;;;;11.69;84.35;97041.58;1661609;84;21401;-82
2021/09/05 04:22:26;;;;;;;19.70;15.90;;;;;;;11.70;84.66;97043.20;1649397;84;21023;-82
2021/09/05 04:24:51;;;;;;;20.32;15.43;;;;;;;11.67;84.92;97051.84;1665691;85;21386;-82
2021/09/05 04:27:17;;;;;;;16.23;13.85;;;;;;;11.68;85.05;97052.16;1675125;84;21129;-82
2021/09/05 04:29:43;;;;;;;18.52;15.05;;;;;;;11.72;84.97;97058.67;1703051;84;21074;-82
2021/09/05 04:32:09;;;;;;;15.83;13.13;;;;;;;11.72;84.99;97060.78;1689601;84;21075;-83
2021/09/05 04:34:34;;;;;;;19.85;14.95;;;;;;;11.74;85.10;97059.30;1695270;84;21486;-83
2021/09/05 04:37:01;;;;;;;16.17;14.23;;;;;;;11.75;84.98;97066.13;1686469;84;21086;-83
2021/09/05 04:39:27;;;;;;;16.32;14.33;;;;;;;11.73;85.15;97062.41;1695478;84;21067;-83
2021/09/05 04:41:53;;;;;;;18.25;13.40;;;;;;;11.72;85.42;97069.09;1692792;84;21047;-83
2021/09/05 04:44:19;;;;;;;15.88;13.05;;;;;;;11.72;85.59;97065.18;1699740;84;21051;-81
2021/09/05 04:46:44;;;;;;;18.30;14.07;;;;;;;11.72;85.85;97072.98;1693467;84;21011;-82
2021/09/05 04:49:10;;;;;;;15.85;12.70;;;;;;;11.74;85.78;97068.42;1684129;84;21425;-83
2021/09/05 04:51:36;;;;;;;16.52;14.35;;;;;;;11.77;85.70;97069.37;1663353;84;21500;-82
2021/09/05 04:54:02;;;;;;;15.35;12.45;;;;;;;11.80;85.73;97070.35;1687871;84;21065;-83
2021/09/05 04:56:28;;;;;;;14.83;12.25;;;;;;;11.81;85.81;97074.58;1679779;84;20987;-82
2021/09/05 04:58:53;;;;;;;15.00;12.37;;;;;;;11.80;85.96;97076.05;1683766;84;21072;-82
2021/09/05 05:01:19;;;;;;;15.90;11.90;;;;;;;11.79;85.97;97079.15;1680226;84;21063;-83
2021/09/05 05:03:45;;;;;;;16.57;12.07;;;;;;;11.79;85.86;97078.34;1684958;84;21100;-82
2021/09/05 05:06:10;;;;;;;13.93;11.85;;;;;;;11.83;85.71;97077.00;1692151;84;21043;-82
2021/09/05 05:08:36;;;;;;;17.25;12.50;;;;;;;11.89;85.76;97090.66;1702239;84;21355;-83
2021/09/05 05:11:02;;;;;;;13.25;11.57;;;;;;;11.93;85.82;97091.44;1684193;84;21154;-82
2021/09/05 05:13:29;;;;;;;14.10;11.93;;;;;;;11.98;85.87;97104.73;1698491;84;21087;-82
2021/09/05 05:15:55;;;;;;;17.45;12.55;;;;;;;12.00;85.76;97103.27;1686235;84;21427;-82
2021/09/05 05:18:24;;;;;;;15.18;12.82;;;;;;;12.00;85.46;97107.17;1675726;84;21186;-81
2021/09/05 05:20:51;;;;;;;15.68;13.95;;;;;;;12.00;85.27;97109.77;1689178;84;21087;-81
2021/09/05 05:23:17;;;;;;;17.77;15.48;;;;;;;11.91;84.64;97112.94;1675082;84;21461;-82
2021/09/05 05:25:43;;;;;;;18.02;14.63;;;;;;;11.75;84.29;97108.28;1685706;84;21160;-82
2021/09/05 05:28:09;;;;;;;16.85;14.55;;;;;;;11.70;84.40;97113.48;1685629;84;21042;-81
2021/09/05 05:30:35;;;;;;;15.48;13.35;;;;;;;11.55;84.18;97108.70;1696535;84;21455;-81
2021/09/05 05:33:01;;;;;;;14.25;12.37;;;;;;;11.52;84.40;97123.34;1697450;84;21019;-82
2021/09/05 05:35:27;;;;;;;15.10;13.08;;;;;;;11.50;84.43;97127.09;1704151;84;21062;-82
2021/09/05 05:37:53;;;;;;;14.35;12.85;;;;;;;11.42;84.50;97127.95;1679308;84;21403;-82
2021/09/05 05:40:23;;;;;;;17.95;13.13;;;;;;;11.49;85.07;97129.38;1684927;84;21054;-82
2021/09/05 05:42:47;;;;;;;17.25;13.90;;;;;;;11.58;85.11;97127.08;1681375;84;21005;-82
2021/09/05 05:45:12;;;;;;;14.65;13.08;;;;;;;11.61;85.06;97128.03;1691616;84;21075;-83
2021/09/05 05:47:38;;;;;;;14.80;13.05;;;;;;;11.61;85.02;97128.03;1690590;84;21047;-82
2021/09/05 05:50:05;;;;;;;16.32;13.50;;;;;;;11.63;84.95;97133.88;1688549;84;21046;-82
2021/09/05 05:52:30;;;;;;;14.70;13.20;;;;;;;11.62;85.10;97134.36;1686710;83;21497;-82
2021/09/05 05:54:56;;;;;;;15.32;13.68;;;;;;;11.71;85.21;97136.42;1691014;84;21047;-83
2021/09/05 05:57:23;;;;;;;14.60;12.73;;;;;;;11.74;85.44;97129.60;1685434;84;21007;-83
2021/09/05 05:59:49;;;;;;;15.08;13.48;;;;;;;11.85;85.22;97135.73;1688515;84;21063;-83
2021/09/05 06:02:15;;;;;;;15.45;12.93;;;;;;;11.93;85.44;97138.80;1694415;84;20981;-82
2021/09/05 06:04:42;;;;;;;15.25;12.73;;;;;;;12.02;85.17;97141.17;1688566;84;21059;-82
2021/09/05 06:07:07;;;;;;;15.43;13.62;;;;;;;12.11;84.90;97146.34;1696938;84;21366;-83
2021/09/05 06:09:33;;;;;;;15.08;13.48;;;;;;;12.14;84.82;97146.00;1695944;84;21008;-82
2021/09/05 06:11:59;;;;;;;16.15;13.75;;;;;;;12.11;84.51;97156.27;1643346;84;21043;-83
2021/09/05 06:14:24;;;;;;;17.57;13.70;;;;;;;12.05;84.84;97158.77;1696133;84;21054;-83
2021/09/05 06:16:51;;;;;;;16.82;14.65;;;;;;;12.09;85.21;97157.44;1696706;84;21427;-82
2021/09/05 06:19:20;;;;;;;13.30;11.90;;;;;;;12.14;85.31;97160.33;1696660;84;20957;-82
2021/09/05 06:21:45;;;;;;;14.13;11.93;;;;;;;12.25;85.43;97161.24;1682024;84;21084;-82
2021/09/05 06:24:10;;;;;;;13.50;11.63;;;;;;;12.37;85.34;97161.16;1700875;84;20996;-82
2021/09/05 06:26:36;;;;;;;16.50;12.63;;;;;;;12.47;85.54;97160.91;1694468;84;21039;-82
2021/09/05 06:29:02;;;;;;;13.93;11.63;;;;;;;12.54;85.75;97163.97;1686031;84;21012;-83
2021/09/05 06:31:28;;;;;;;12.47;11.12;;;;;;;12.57;85.38;97158.40;1696203;84;20995;-83
2021/09/05 06:33:54;;;;;;;12.70;11.40;;;;;;;12.67;85.41;97164.66;1686004;84;20979;-82
2021/09/05 06:36:20;;;;;;;13.62;11.68;;;;;;;12.77;85.51;97161.83;1687539;84;21027;-82
2021/09/05 06:38:45;;;;;;;12.20;10.53;;;;;;;12.90;85.39;97165.95;1692917;84;21435;-82
2021/09/05 06:41:12;;;;;;;15.00;12.80;;;;;;;12.88;84.98;97171.34;1686663;84;21560;-82
2021/09/05 06:43:38;;;;;;;16.20;13.78;;;;;;;12.83;85.12;97177.56;1691767;84;21462;-82
2021/09/05 06:46:04;;;;;;;14.98;12.68;;;;;;;12.90;85.12;97178.99;1698553;84;21063;-83
2021/09/05 06:48:31;;;;;;;15.48;12.00;;;;;;;12.98;85.16;97178.91;1680080;84;21041;-83
2021/09/05 06:50:59;;;;;;;14.35;12.50;;;;;;;13.06;84.85;97182.75;1695277;83;21003;-81
2021/09/05 06:53:24;;;;;;;14.73;11.78;;;;;;;13.17;85.07;97188.02;1664176;84;21477;-82
2021/09/05 06:55:51;;;;;;;15.83;12.43;;;;;;;13.27;84.88;97191.22;1698570;83;21019;-82
2021/09/05 06:58:16;;;;;;;18.35;12.88;;;;;;;13.33;84.73;97192.30;1716323;83;20976;-83
2021/09/05 07:00:42;;;;;;;16.73;13.70;;;;;;;13.26;83.91;97200.04;1700500;83;21105;-82
2021/09/05 07:03:09;;;;;;;15.75;12.70;;;;;;;13.20;84.18;97200.27;1703515;83;21059;-81
2021/09/05 07:05:34;;;;;;;15.00;11.38;;;;;;;13.24;84.12;97203.33;1710244;82;21098;-81
2021/09/05 07:08:00;;;;;;;14.10;12.63;;;;;;;13.28;84.56;97211.11;1682112;84;21043;-82
2021/09/05 07:10:27;;;;;;;14.80;11.12;;;;;;;13.28;83.67;97213.72;1664801;84;21034;-81
2021/09/05 07:12:53;;;;;;;12.03;10.30;;;;;;;13.23;83.72;97213.45;1666935;84;21082;-82
2021/09/05 07:15:18;;;;;;;14.05;12.33;;;;;;;13.23;83.17;97221.78;1690204;84;21139;-81
2021/09/05 07:17:44;;;;;;;14.60;11.08;;;;;;;13.21;83.88;97219.34;1654303;84;21112;-81
2021/09/05 07:20:11;;;;;;;15.20;11.40;;;;;;;13.25;83.58;97221.91;1675190;84;21122;-81
2021/09/05 07:22:37;;;;;;;13.22;10.88;;;;;;;13.30;82.93;97230.01;1677368;85;21069;-82
2021/09/05 07:25:03;;;;;;;15.45;12.23;;;;;;;13.26;82.50;97231.85;1660775;84;21355;-82
2021/09/05 07:27:29;;;;;;;16.97;12.10;;;;;;;13.24;83.35;97234.64;1668430;84;21027;-82
2021/09/05 07:29:55;;;;;;;14.83;11.30;;;;;;;13.27;83.53;97239.50;1674743;84;21004;-81
2021/09/05 07:32:21;;;;;;;14.07;11.22;;;;;;;13.31;83.45;97236.84;1668475;84;21340;-82
2021/09/05 07:34:47;;;;;;;13.65;10.63;;;;;;;13.40;83.28;97241.02;1674062;84;20987;-82
2021/09/05 07:37:14;;;;;;;13.60;11.00;;;;;;;13.44;82.37;97239.66;1678279;84;21059;-82
2021/09/05 07:39:41;;;;;;;12.00;9.68;;;;;;;13.44;82.99;97243.58;1659909;84;21447;-82
2021/09/05 07:42:09;;;;;;;11.33;9.50;;;;;;;13.51;83.06;97244.50;1661638;84;20983;-81
2021/09/05 07:44:34;;;;;;;16.20;10.48;;;;;;;13.52;82.14;97250.53;1656787;84;21066;-81
2021/09/05 07:47:00;;;;;;;11.43;9.45;;;;;;;13.56;82.54;97260.93;1674889;85;21066;-83
2021/09/05 07:49:27;;;;;;;12.53;9.93;;;;;;;13.70;83.16;97254.91;1675042;84;21133;-82
2021/09/05 07:51:53;;;;;;;13.60;9.13;;;;;;;13.81;83.23;97255.74;1686119;84;20983;-81
2021/09/05 07:54:19;;;;;;;12.40;9.50;;;;;;;13.87;82.30;97257.34;1695000;84;21023;-81
2021/09/05 07:56:45;;;;;;;11.78;9.03;;;;;;;13.98;82.84;97258.98;1690073;83;21062;-82
2021/09/05 07:59:10;;;;;;;8.88;7.60;;;;;;;14.03;82.60;97263.69;1671762;84;21419;-81
2021/09/05 08:01:37;;;;;;;10.50;7.65;;;;;;;14.06;81.97;97256.78;1649311;85;21046;-82
2021/09/05 08:04:04;;;;;;;8.48;7.58;;;;;;;14.12;81.99;97257.34;1679574;84;21043;-82
2021/09/05 08:06:29;;;;;;;8.28;5.97;;;;;;;14.22;82.02;97265.73;1688937;84;21166;-82
2021/09/05 08:08:58;;;;;;;7.70;6.35;;;;;;;14.25;79.88;97262.73;1689554;84;21157;-81
2021/09/05 08:11:26;;;;;;;10.20;8.10;;;;;;;14.30;80.60;97262.19;1685542;84;21110;-82
2021/09/05 08:13:52;;;;;;;10.88;7.45;;;;;;;14.38;81.62;97265.52;1670325;85;21067;-82
2021/09/05 08:16:18;;;;;;;9.55;6.67;;;;;;;14.43;81.19;97267.57;1676044;85;21050;-82
2021/09/05 08:18:43;;;;;;;8.30;6.08;;;;;;;14.49;80.58;97271.30;1695876;83;21106;-82
2021/09/05 08:21:09;;;;;;;9.05;6.83;;;;;;;14.53;80.70;97268.12;1702307;83;21163;-82
2021/09/05 08:23:36;;;;;;;10.08;6.50;;;;;;;14.64;81.41;97266.81;1709556;83;21107;-82
2021/09/05 08:26:04;;;;;;;8.70;5.80;;;;;;;14.72;80.93;97269.33;1713713;83;21102;-82
2021/09/05 08:28:30;;;;;;;8.33;6.05;;;;;;;14.78;80.19;97267.27;1677152;84;21016;-82
2021/09/05 08:30:56;;;;;;;7.42;5.47;;;;;;;14.87;80.09;97275.31;1691581;84;21028;-82
2021/09/05 08:33:21;;;;;;;6.62;5.50;;;;;;;14.88;78.86;97273.01;1678970;84;21123;-82
2021/09/05 08:35:47;;;;;;;6.70;5.22;;;;;;;14.90;79.10;97278.05;1679773;84;21092;-82
2021/09/05 08:38:13;;;;;;;7.55;5.55;;;;;;;14.96;79.51;97281.22;1675328;84;21078;-81
2021/09/05 08:40:44;;;;;;;6.42;5.05;;;;;;;15.01;78.68;97273.64;1693612;84;21045;-83
2021/09/05 08:43:10;;;;;;;6.50;4.95;;;;;;;15.10;79.14;97275.11;1701356;83;21141;-82
2021/09/05 08:45:36;;;;;;;6.65;5.08;;;;;;;15.19;78.41;97275.80;1682141;84;21113;-82
2021/09/05 08:48:04;;;;;;;7.92;5.03;;;;;;;15.29;78.79;97284.97;1665629;84;21133;-82
2021/09/05 08:50:30;;;;;;;6.15;4.78;;;;;;;15.37;78.20;97284.50;1677182;84;21051;-82
2021/09/05 08:52:55;;;;;;;6.05;4.62;;;;;;;15.44;78.10;97287.97;1648255;84;21048;-82
2021/09/05 08:55:21;;;;;;;5.90;4.90;;;;;;;15.49;78.01;97289.04;1666472;84;21062;-82
2021/09/05 08:57:47;;;;;;;6.03;4.40;;;;;;;15.49;77.53;97291.66;1685480;84;21066;-82
2021/09/05 09:00:13;;;;;;;7.33;4.33;;;;;;;15.53;76.44;97294.70;1680172;84;21098;-82
2021/09/05 09:02:48;;;;;;;5.78;4.33;;;;;;;15.54;75.68;97292.39;1649994;84;21156;-82
2021/09/05 09:05:15;;;;;;;5.10;4.20;;;;;;;15.63;76.65;97297.03;1687796;84;21072;-82
2021/09/05 09:07:46;;;;;;;5.55;3.65;;;;;;;15.70;76.49;97292.63;1665736;85;21548;-82
2021/09/05 09:10:11;;;;;;;4.33;3.30;;;;;;;15.77;74.16;97290.34;1666345;84;21351;-82
2021/09/05 09:12:49;;;;;;;4.37;2.92;;;;;;;15.86;75.53;97299.69;1677026;84;21035;-82
2021/09/05 09:15:31;;;;;;;4.40;3.00;;;;;;;15.87;72.57;97304.44;1685137;84;21062;-82
2021/09/05 09:18:02;;;;;;;3.85;2.45;;;;;;;15.93;71.90;97296.29;1672992;84;21039;-82
2021/09/05 09:20:42;;;;;;;5.30;3.30;;;;;;;15.99;70.77;97304.21;1667227;84;21063;-82
2021/09/05 09:23:18;;;;;;;3.67;2.77;;;;;;;16.04;73.59;97305.73;1688647;84;21036;-82
2021/09/05 09:26:09;;;;;;;3.85;2.65;;;;;;;16.05;70.72;97308.67;1684152;84;21532;-82
2021/09/05 09:28:44;;;;;;;4.35;3.08;;;;;;;16.05;70.78;97311.29;1698789;84;21051;-82
2021/09/05 09:31:25;;;;;;;3.12;2.50;;;;;;;16.06;71.29;97314.22;1671670;84;20961;-82
2021/09/05 09:33:55;;;;;;;3.95;2.58;;;;;;;16.11;71.64;97308.42;1721613;82;21038;-82
2021/09/05 09:36:24;;;;;;;3.60;2.17;;;;;;;16.14;71.51;97309.34;1715405;83;21469;-82
2021/09/05 09:39:03;;;;;;;4.28;2.47;;;;;;;16.16;71.62;97309.45;1719490;83;21405;-82
2021/09/05 09:41:33;;;;;;;3.80;2.33;;;;;;;16.14;70.78;97309.34;1703639;84;21075;-82
2021/09/05 09:44:05;;;;;;;3.80;2.40;;;;;;;16.13;70.24;97311.65;1702435;83;21490;-82
2021/09/05 09:46:34;;;;;;;3.30;2.15;;;;;;;16.13;69.65;97311.65;1694403;83;21035;-82
2021/09/05 09:49:04;;;;;;;3.67;2.52;;;;;;;16.12;69.16;97310.03;1713708;83;21406;-82
2021/09/05 09:51:33;;;;;;;3.30;2.35;;;;;;;16.09;68.68;97312.52;1697074;83;21378;-82
2021/09/05 09:53:59;;;;;;;3.87;2.00;;;;;;;16.10;69.30;97311.51;1706938;83;21045;-82
2021/09/05 09:56:26;;;;;;;3.45;2.52;;;;;;;16.11;69.15;97311.84;1686556;84;21061;-82
2021/09/05 09:58:57;;;;;;;3.60;2.20;;;;;;;16.14;69.58;97312.77;1684848;83;20982;-82
2021/09/05 10:01:25;;;;;;;3.83;2.25;;;;;;;16.03;66.87;97288.90;1698466;83;21457;-82
2021/09/05 10:03:53;;;;;;;3.52;2.52;;;;;;;16.20;67.09;97311.98;1699018;83;21012;-82
2021/09/05 10:06:25;;;;;;;2.33;1.65;;;;;;;16.27;67.14;97304.63;1721486;83;21090;-82
2021/09/05 10:08:58;;;;;;;5.20;2.08;;;;;;;16.34;66.45;97308.11;1692109;83;21024;-82
2021/09/05 10:11:24;;;;;;;2.15;1.40;;;;;;;16.39;67.04;97306.52;1712530;83;21119;-82
2021/09/05 10:13:50;;;;;;;2.70;2.08;;;;;;;16.44;65.44;97305.95;1678010;84;21537;-83
2021/09/05 10:16:16;;;;;;;2.47;1.40;;;;;;;16.43;66.91;97306.92;1685670;84;21036;-82
2021/09/05 10:18:48;;;;;;;1.90;1.37;;;;;;;16.46;66.79;97305.24;1672716;84;21095;-82
2021/09/05 10:21:15;;;;;;;2.85;1.62;;;;;;;16.51;63.00;97305.45;1662984;85;21107;-82
2021/09/05 10:23:53;;;;;;;4.28;1.55;;;;;;;16.57;65.17;97302.54;1674072;84;21031;-82
2021/09/05 10:26:19;;;;;;;2.83;1.47;;;;;;;16.62;65.51;97308.03;1661786;84;21129;-83
2021/09/05 10:28:49;;;;;;;2.37;1.37;;;;;;;16.59;62.28;97311.83;1682599;84;21446;-83
2021/09/05 10:31:28;;;;;;;3.55;1.87;;;;;;;16.59;64.29;97311.02;1683159;84;21022;-82
2021/09/05 10:33:55;;;;;;;2.58;1.40;;;;;;;16.58;62.91;97307.59;1676089;85;21428;-83
2021/09/05 10:36:23;;;;;;;2.15;1.60;;;;;;;16.57;64.37;97313.03;1675092;84;21036;-83
2021/09/05 10:38:49;;;;;;;1.98;1.40;;;;;;;16.54;63.15;97315.55;1665133;85;21087;-82
2021/09/05 10:41:25;;;;;;;2.50;1.40;;;;;;;16.61;62.96;97320.34;1677196;84;21037;-83
2021/09/05 10:44:04;;;;;;;2.47;1.25;;;;;;;16.73;62.54;97319.27;1700501;83;21409;-83
2021/09/05 10:46:40;;;;;;;1.95;1.30;;;;;;;16.83;61.64;97322.84;1710191;83;21035;-83
2021/09/05 10:49:07;;;;;;;2.75;1.30;;;;;;;16.97;63.20;97316.12;1665102;84;21036;-83
2021/09/05 10:51:38;;;;;;;2.47;1.50;;;;;;;17.09;60.58;97324.23;1687144;83;20998;-82
2021/09/05 10:54:09;;;;;;;2.25;0.90;;;;;;;17.19;62.35;97317.25;1714558;83;21398;-83
2021/09/05 10:56:45;;;;;;;1.87;1.15;;;;;;;17.20;59.86;97315.73;1708880;82;21028;-83
2021/09/05 10:59:19;;;;;;;1.85;1.15;;;;;;;17.20;59.97;97319.67;1723020;83;21034;-83
2021/09/05 11:01:51;;;;;;;2.50;1.40;;;;;;;17.20;60.84;97317.05;1695013;84;21016;-83
2021/09/05 11:04:21;;;;;;;1.95;1.20;;;;;;;17.14;58.77;97311.80;1687387;84;21119;-83
2021/09/05 11:07:03;;;;;;;2.08;1.00;;;;;;;17.09;59.74;97318.47;1676891;84;21003;-82
2021/09/05 11:09:35;;;;;;;1.77;1.05;;;;;;;17.13;61.27;97322.81;1666487;84;21042;-83
2021/09/05 11:12:08;;;;;;;2.10;1.30;;;;;;;17.13;60.80;97320.69;1654317;85;21035;-82
2021/09/05 11:14:41;;;;;;;1.70;1.17;;;;;;;17.19;60.88;97325.94;1704683;83;21061;-83
2021/09/05 11:17:20;;;;;;;1.60;1.10;;;;;;;17.20;61.48;97308.36;1680464;84;21057;-83
2021/09/05 11:19:52;;;;;;;1.75;0.90;;;;;;;17.34;60.77;97320.00;1695884;83;21170;-82
2021/09/05 11:22:32;;;;;;;2.30;1.20;;;;;;;17.39;59.53;97318.07;1681645;84;21042;-83